createdAt,value
2019-04-22T00:02:17.476Z,28.49
2019-04-22T00:05:01.129Z,28.48
2019-04-22T00:07:46.317Z,28.85
2019-04-22T00:10:19.359Z,29.01
2019-04-22T00:12:47.068Z,29.65
2019-04-22T00:15:10.013Z,29.84
2019-04-22T00:17:53.363Z,29.42
2019-04-22T00:20:39.219Z,29.33
2019-04-22T00:22:52.042Z,29.15
2019-04-22T00:25:46.038Z,29.40
2019-04-22T00:27:56.420Z,29.35
2019-04-22T00:30:22.480Z,29.24
2019-04-22T00:33:24.544Z,29.33
2019-04-22T00:35:54.900Z,29.58
2019-04-22T00:41:02.449Z,29.70
2019-04-22T00:43:24.246Z,29.74
2019-04-22T00:45:56.275Z,29.57
2019-04-22T00:48:51.192Z,29.73
2019-04-22T00:51:06.054Z,29.99
2019-04-22T00:53:35.806Z,30.09
2019-04-22T00:58:39.699Z,30.20
2019-04-22T01:01:14.292Z,30.79
2019-04-22T01:06:17.343Z,30.37
2019-04-22T01:08:52.971Z,30.39
2019-04-22T01:11:19.077Z,30.29
2019-04-22T01:13:44.205Z,30.53
2019-04-22T01:16:20.472Z,30.31
2019-04-22T01:18:49.217Z,30.47
2019-04-22T01:21:24.391Z,31.24
2019-04-22T01:23:47.632Z,31.23
2019-04-22T01:26:15.681Z,31.74
2019-04-22T01:28:46.382Z,31.99
2019-04-22T01:31:10.254Z,31.53
2019-04-22T01:33:41.089Z,31.86
2019-04-22T01:36:25.850Z,32.15
2019-04-22T01:38:58.322Z,32.31
2019-04-22T01:41:42.288Z,32.56
2019-04-22T01:44:18.554Z,32.42
2019-04-22T01:46:39.291Z,32.66
2019-04-22T01:49:08.500Z,32.99
2019-04-22T01:51:45.277Z,32.96
2019-04-22T01:54:14.856Z,33.16
2019-04-22T01:56:41.136Z,32.96
2019-04-22T01:59:05.108Z,33.11
2019-04-22T02:01:43.603Z,32.82
2019-04-22T02:04:17.594Z,32.57
2019-04-22T02:34:06.940Z,34.39
2019-04-22T02:36:29.472Z,34.52
2019-04-22T02:56:28.488Z,34.66
2019-04-22T03:16:32.040Z,35.35
2019-04-22T03:19:02.489Z,35.70
2019-04-22T03:24:17.498Z,36.31
2019-04-22T03:26:48.992Z,36.54
2019-04-22T03:37:27.434Z,36.76
2019-04-22T03:49:55.891Z,36.13
2019-04-22T03:52:10.680Z,36.59
2019-04-22T03:54:46.276Z,36.21
2019-04-22T04:02:13.457Z,36.22
2019-04-22T04:07:26.917Z,36.25
2019-04-22T04:09:44.327Z,36.63
2019-04-22T04:15:23.662Z,36.20
2019-04-22T04:22:30.440Z,36.23
2019-04-22T04:25:17.195Z,36.72
2019-04-22T04:27:42.783Z,37.02
2019-04-22T04:30:14.836Z,36.78
2019-04-22T04:37:42.259Z,36.64
2019-04-22T04:40:05.160Z,36.63
2019-04-22T04:47:42.869Z,37.09
2019-04-22T04:50:12.215Z,36.61
2019-04-22T04:52:52.460Z,36.51
2019-04-22T04:55:11.894Z,36.48
2019-04-22T05:02:44.886Z,36.68
2019-04-22T05:15:13.363Z,36.11
2019-04-22T05:20:24.109Z,36.14
2019-04-22T05:22:43.137Z,35.98
2019-04-22T05:25:11.755Z,35.97
2019-04-22T05:27:39.750Z,35.98
2019-04-22T05:32:44.555Z,35.78
2019-04-22T05:35:23.000Z,35.99
2019-04-22T05:42:46.165Z,35.43
2019-04-22T05:45:14.750Z,35.26
2019-04-22T05:47:50.512Z,35.84
2019-04-22T05:50:18.936Z,35.12
2019-04-22T05:52:51.548Z,35.10
2019-04-22T05:55:33.270Z,34.95
2019-04-22T05:57:57.829Z,34.87
2019-04-22T06:03:07.207Z,34.62
2019-04-22T06:05:32.055Z,34.30
2019-04-22T06:08:02.336Z,34.32
2019-04-22T06:13:00.889Z,34.29
2019-04-22T06:15:36.365Z,34.85
2019-04-22T06:20:45.493Z,34.16
2019-04-22T06:23:15.282Z,34.00
2019-04-22T06:28:26.605Z,33.65
2019-04-22T06:30:53.358Z,33.34
2019-04-22T06:33:14.986Z,33.11
2019-04-22T06:40:48.242Z,33.23
2019-04-22T06:43:38.180Z,32.98
2019-04-22T06:45:44.962Z,32.66
2019-04-22T06:48:23.690Z,32.89
2019-04-22T06:50:52.944Z,32.60
2019-04-22T06:53:25.037Z,32.58
2019-04-22T06:55:51.383Z,32.45
2019-04-22T06:58:20.225Z,32.36
2019-04-22T07:00:55.096Z,32.39
2019-04-22T07:06:03.996Z,31.70
2019-04-22T07:09:01.301Z,31.76
2019-04-22T07:10:56.308Z,31.57
2019-04-22T07:16:18.597Z,31.80
2019-04-22T07:18:37.278Z,31.61
2019-04-22T07:21:06.638Z,31.23
2019-04-22T07:26:04.245Z,30.79
2019-04-22T07:28:29.189Z,30.65
2019-04-22T07:31:10.300Z,30.85
2019-04-22T07:33:42.412Z,30.51
2019-04-22T07:38:35.959Z,30.15
2019-04-22T07:41:28.677Z,30.24
2019-04-22T07:44:02.980Z,30.13
2019-04-22T07:46:14.829Z,29.98
2019-04-22T07:48:45.319Z,30.05
2019-04-22T07:53:52.175Z,29.94
2019-04-22T07:56:19.067Z,29.82
2019-04-22T07:58:50.420Z,29.59
2019-04-22T08:01:20.212Z,29.33
2019-04-22T08:04:00.179Z,28.93
2019-04-22T08:06:26.393Z,28.81
2019-04-22T08:08:56.604Z,28.49
2019-04-22T08:11:37.517Z,28.04
2019-04-22T08:13:56.332Z,27.88
2019-04-22T08:16:23.395Z,27.83
2019-04-22T08:19:03.119Z,27.65
2019-04-22T08:21:29.990Z,27.72
2019-04-22T08:24:01.379Z,27.81
2019-04-22T08:26:33.264Z,27.80
2019-04-22T08:29:11.520Z,27.67
2019-04-22T08:31:36.949Z,27.95
2019-04-22T08:36:41.033Z,27.48
2019-04-22T08:39:07.972Z,27.35
2019-04-22T08:44:28.027Z,27.20
2019-04-22T08:46:40.387Z,27.12
2019-04-22T08:49:10.193Z,26.98
2019-04-22T08:51:49.057Z,26.72
2019-04-22T08:54:13.680Z,26.78
2019-04-22T08:59:12.078Z,27.15
2019-04-22T09:01:44.941Z,26.89
2019-04-22T09:04:13.313Z,26.72
2019-04-22T09:07:12.449Z,26.61
2019-04-22T09:09:19.589Z,26.28
2019-04-22T09:11:58.054Z,26.13
2019-04-22T09:14:24.210Z,26.21
2019-04-22T09:17:08.894Z,26.45
2019-04-22T09:19:30.028Z,26.35
2019-04-22T09:22:05.293Z,26.13
2019-04-22T09:24:38.728Z,26.23
2019-04-22T09:27:04.054Z,26.34
2019-04-22T09:29:40.002Z,26.17
2019-04-22T09:34:40.233Z,25.92
2019-04-22T09:37:21.102Z,25.87
2019-04-22T09:39:41.285Z,25.78
2019-04-22T09:42:09.117Z,25.84
2019-04-22T09:44:40.348Z,25.55
2019-04-22T09:47:11.614Z,25.18
2019-04-22T09:49:53.178Z,24.14
2019-04-22T09:52:14.944Z,24.54
2019-04-22T09:55:12.966Z,24.42
2019-04-22T09:57:33.901Z,24.41
2019-04-22T10:00:10.906Z,24.12
2019-04-22T10:02:42.803Z,23.98
2019-04-22T10:05:17.333Z,24.66
2019-04-22T10:07:39.162Z,24.73
2019-04-22T10:10:17.105Z,24.26
2019-04-22T10:12:57.816Z,24.17
2019-04-22T10:15:16.373Z,24.04
2019-04-22T10:17:41.789Z,23.89
2019-04-22T10:20:17.867Z,23.89
2019-04-22T10:22:54.750Z,24.11
2019-04-22T10:25:16.718Z,24.35
2019-04-22T10:27:53.621Z,24.50
2019-04-22T10:30:31.880Z,24.46
2019-04-22T10:32:47.970Z,24.77
2019-04-22T10:37:42.567Z,24.74
2019-04-22T10:40:52.547Z,24.62
2019-04-22T10:43:23.254Z,24.43
2019-04-22T10:45:54.503Z,24.49
2019-04-22T10:48:26.202Z,24.11
2019-04-22T10:50:56.793Z,24.18
2019-04-22T10:53:26.858Z,24.25
2019-04-22T10:55:56.432Z,24.78
2019-04-22T10:58:28.760Z,24.86
2019-04-22T11:01:00.037Z,24.87
2019-04-22T11:03:30.962Z,24.83
2019-04-22T11:06:01.281Z,25.11
2019-04-22T11:08:38.518Z,24.79
2019-04-22T11:11:15.109Z,24.14
2019-04-22T11:13:33.821Z,23.87
2019-04-22T11:16:05.468Z,23.92
2019-04-22T11:18:36.086Z,23.70
2019-04-22T11:21:05.499Z,23.71
2019-04-22T11:23:34.756Z,24.40
2019-04-22T11:31:48.231Z,23.81
2019-04-22T11:34:19.277Z,24.31
2019-04-22T11:36:50.395Z,24.87
2019-04-22T11:39:21.682Z,25.08
2019-04-22T11:41:51.929Z,25.35
2019-04-22T11:44:23.462Z,25.33
2019-04-22T11:46:53.603Z,25.14
2019-04-22T11:49:24.006Z,25.10
2019-04-22T11:51:54.218Z,25.03
2019-04-22T11:56:59.243Z,24.88
2019-04-22T11:59:29.030Z,24.88
2019-04-22T12:02:00.577Z,25.01
2019-04-22T12:04:32.065Z,24.85
2019-04-22T12:07:02.163Z,24.55
2019-04-22T12:09:33.348Z,24.53
2019-04-22T12:14:40.466Z,24.65
2019-04-22T12:17:11.141Z,24.49
2019-04-22T12:19:42.032Z,24.45
2019-04-22T12:22:13.197Z,24.18
2019-04-22T12:25:36.108Z,23.95
2019-04-22T12:27:54.958Z,24.09
2019-04-22T12:33:34.982Z,23.70
2019-04-22T12:36:06.412Z,23.68
2019-04-22T12:38:37.667Z,23.82
2019-04-22T12:41:10.387Z,23.65
2019-04-22T12:43:38.721Z,23.74
2019-04-22T12:46:10.053Z,23.88
2019-04-22T12:48:41.136Z,24.00
2019-04-22T12:51:11.109Z,23.64
2019-04-22T12:53:40.346Z,23.26
2019-04-22T12:56:09.545Z,23.31
2019-04-22T12:58:38.799Z,23.14
2019-04-22T13:01:48.930Z,23.58
2019-04-22T13:04:21.221Z,23.83
2019-04-22T13:06:49.955Z,23.68
2019-04-22T13:09:21.231Z,23.96
2019-04-22T13:11:51.106Z,24.03
2019-04-22T13:14:21.176Z,24.28
2019-04-22T13:16:51.361Z,24.19
2019-04-22T13:19:21.462Z,23.95
2019-04-22T13:21:51.532Z,24.04
2019-04-22T13:24:21.779Z,24.06
2019-04-22T13:26:53.007Z,23.89
2019-04-22T13:29:25.125Z,23.80
2019-04-22T13:31:55.114Z,24.05
2019-04-22T13:34:33.708Z,23.95
2019-04-22T13:36:56.780Z,23.73
2019-04-22T13:39:27.119Z,23.85
2019-04-22T13:42:02.260Z,23.94
2019-04-22T13:44:28.239Z,23.64
2019-04-22T13:47:14.770Z,23.67
2019-04-22T13:50:17.720Z,23.44
2019-04-22T13:52:45.131Z,23.04
2019-04-22T13:54:57.423Z,22.98
2019-04-22T13:57:42.582Z,22.93
2019-04-22T13:59:57.636Z,22.79
2019-04-22T14:02:42.576Z,22.64
2019-04-22T14:08:23.029Z,22.64
2019-04-22T14:10:52.600Z,22.62
2019-04-22T14:13:21.864Z,22.08
2019-04-22T14:15:51.136Z,21.60
2019-04-22T14:18:21.087Z,21.52
2019-04-22T14:20:51.304Z,21.48
2019-04-22T14:23:22.451Z,21.33
2019-04-22T14:25:52.812Z,20.99
2019-04-22T14:28:24.785Z,20.86
2019-04-22T14:33:30.131Z,20.89
2019-04-22T14:36:00.567Z,20.67
2019-04-22T14:38:32.273Z,20.50
2019-04-22T14:41:02.535Z,20.10
2019-04-22T14:44:00.052Z,20.16
2019-04-22T14:46:26.405Z,20.10
2019-04-22T14:48:57.330Z,20.04
2019-04-22T14:51:20.547Z,19.09
2019-04-22T14:53:56.130Z,20.01
2019-04-22T14:56:08.468Z,19.80
2019-04-22T14:58:38.592Z,19.09
2019-04-22T15:03:48.186Z,18.69
2019-04-22T15:06:15.843Z,18.60
2019-04-22T15:08:47.000Z,17.99
2019-04-22T15:12:08.740Z,18.16
2019-04-22T15:14:27.795Z,17.60
2019-04-22T15:17:16.595Z,17.63
2019-04-22T15:19:52.009Z,17.73
2019-04-22T15:22:21.279Z,17.66
2019-04-22T15:24:52.319Z,17.01
2019-04-22T15:27:22.588Z,16.73
2019-04-22T15:29:53.771Z,16.63
2019-04-22T15:32:25.188Z,16.56
2019-04-22T15:34:55.363Z,16.22
2019-04-22T15:37:26.398Z,15.73
2019-04-22T15:42:36.159Z,15.29
2019-04-22T15:45:03.218Z,15.37
2019-04-22T15:47:34.690Z,15.39
2019-04-22T15:50:05.954Z,14.71
2019-04-22T15:52:42.047Z,13.67
2019-04-22T15:55:06.833Z,12.79
2019-04-22T15:57:38.042Z,11.63
2019-04-22T16:00:21.361Z,11.31
2019-04-22T16:02:39.434Z,10.59
2019-04-22T16:05:10.618Z,9.91
2019-04-22T16:07:42.063Z,9.59
2019-04-22T16:10:12.276Z,9.10
2019-04-22T16:12:52.991Z,9.04
2019-04-22T16:18:22.552Z,8.97
2019-04-22T16:20:54.285Z,8.61
2019-04-22T16:23:44.508Z,8.51
2019-04-22T16:26:32.843Z,8.56
2019-04-22T16:29:03.334Z,8.61
2019-04-22T16:31:33.636Z,8.64
2019-04-22T16:34:04.585Z,8.98
2019-04-22T16:36:36.413Z,9.03
2019-04-22T16:39:48.588Z,9.03
2019-04-22T16:42:28.913Z,9.22
2019-04-22T16:44:49.421Z,10.33
2019-04-22T16:47:19.792Z,10.69
2019-04-22T16:49:49.859Z,10.94
2019-04-22T16:52:19.046Z,11.17
2019-04-22T16:54:48.314Z,11.87
2019-04-22T17:00:27.016Z,13.69
2019-04-22T17:03:16.527Z,14.82
2019-04-22T17:06:05.419Z,15.59
2019-04-22T17:08:36.987Z,16.58
2019-04-22T17:11:07.523Z,17.48
2019-04-22T17:13:38.525Z,18.13
2019-04-22T17:16:09.960Z,18.64
2019-04-22T17:18:41.302Z,19.27
2019-04-22T17:21:12.964Z,19.57
2019-04-22T17:23:43.478Z,20.18
2019-04-22T17:26:14.712Z,20.35
2019-04-22T17:28:45.858Z,20.64
2019-04-22T17:31:16.484Z,21.07
2019-04-22T17:33:46.846Z,20.93
2019-04-22T17:36:16.443Z,21.23
2019-04-22T17:38:56.276Z,21.61
2019-04-22T17:41:28.279Z,21.71
2019-04-22T17:44:13.112Z,21.93
2019-04-22T17:52:23.175Z,22.50
2019-04-22T17:55:38.468Z,22.16
2019-04-22T17:57:59.598Z,22.40
2019-04-22T18:01:12.290Z,22.28
2019-04-22T18:03:31.108Z,22.37
2019-04-22T18:05:59.415Z,22.30
2019-04-22T18:08:40.776Z,22.53
2019-04-22T18:11:24.387Z,22.51
2019-04-22T18:13:52.183Z,22.71
2019-04-22T18:16:17.864Z,22.86
2019-04-22T18:18:49.653Z,23.12
2019-04-22T18:21:13.089Z,23.20
2019-04-22T18:23:39.978Z,23.32
2019-04-22T18:26:20.352Z,23.59
2019-04-22T18:28:54.158Z,23.73
2019-04-22T18:31:17.438Z,24.16
2019-04-22T18:33:51.595Z,23.97
2019-04-22T18:36:27.500Z,24.09
2019-04-22T18:38:58.356Z,24.25
2019-04-22T18:41:23.654Z,24.46
2019-04-22T18:44:01.783Z,24.56
2019-04-22T18:46:26.932Z,24.81
2019-04-22T18:49:01.704Z,25.15
2019-04-22T18:56:59.506Z,25.52
2019-04-22T18:59:17.445Z,25.66
2019-04-22T19:01:41.823Z,25.70
2019-04-22T19:04:19.493Z,25.78
2019-04-22T19:07:01.800Z,25.80
2019-04-22T19:09:41.457Z,25.94
2019-04-22T19:14:45.447Z,26.09
2019-04-22T19:17:17.006Z,26.63
2019-04-22T19:19:43.611Z,26.45
2019-04-22T19:22:19.529Z,26.57
2019-04-22T19:24:41.773Z,26.65
2019-04-22T19:27:16.222Z,26.67
2019-04-22T19:29:52.636Z,26.86
2019-04-22T19:32:19.458Z,26.99
2019-04-22T19:34:48.178Z,27.18
2019-04-22T19:37:19.161Z,27.35
2019-04-22T19:40:00.919Z,27.43
2019-04-22T19:42:30.532Z,27.48
2019-04-22T19:47:30.390Z,28.07
2019-04-22T19:50:05.577Z,28.09
2019-04-22T19:52:38.658Z,28.26
2019-04-22T19:55:01.450Z,28.64
2019-04-22T19:57:31.364Z,28.43
2019-04-22T20:03:13.234Z,28.74
2019-04-22T20:06:16.066Z,28.87
2019-04-22T20:08:42.625Z,29.06
2019-04-22T20:11:19.606Z,29.59
2019-04-22T20:13:49.249Z,29.48
2019-04-22T20:16:06.147Z,29.70
2019-04-22T20:18:51.837Z,29.96
2019-04-22T20:21:22.364Z,30.06
2019-04-22T20:23:44.547Z,30.41
2019-04-22T20:26:16.154Z,30.65
2019-04-22T20:28:52.487Z,30.66
2019-04-22T20:31:26.609Z,30.89
2019-04-22T20:34:04.668Z,30.99
2019-04-22T20:36:50.249Z,31.04
2019-04-22T20:38:53.639Z,31.32
2019-04-22T20:41:26.529Z,31.45
2019-04-22T20:44:05.164Z,31.67
2019-04-22T20:46:29.803Z,31.94
2019-04-22T20:49:02.646Z,31.82
2019-04-22T20:51:43.764Z,31.84
2019-04-22T20:54:09.043Z,31.87
2019-04-22T20:56:35.637Z,31.70
2019-04-22T20:59:10.216Z,31.64
2019-04-22T21:01:39.984Z,31.70
2019-04-22T21:03:55.474Z,31.78
2019-04-22T21:06:36.914Z,31.76
2019-04-22T21:09:12.150Z,31.93
2019-04-22T21:11:38.436Z,32.09
2019-04-22T21:14:12.261Z,32.33
2019-04-22T21:16:48.201Z,32.40
2019-04-22T21:19:22.056Z,32.50
2019-04-22T21:21:54.667Z,32.86
2019-04-22T21:24:09.390Z,32.89
2019-04-22T21:26:43.759Z,33.07
2019-04-22T21:29:17.294Z,33.26
2019-04-22T21:31:53.313Z,33.36
2019-04-22T21:34:20.543Z,33.59
2019-04-22T21:36:57.497Z,33.84
2019-04-22T21:39:37.497Z,33.94
2019-04-22T21:42:11.830Z,33.94
2019-04-22T21:44:38.340Z,33.90
2019-04-22T21:47:25.690Z,33.94
2019-04-22T21:49:51.422Z,33.91
2019-04-22T21:52:16.928Z,33.93
2019-04-22T21:55:13.121Z,34.12
2019-04-22T21:58:04.843Z,34.12
2019-04-22T22:01:21.885Z,33.80
2019-04-22T22:04:03.539Z,34.19
2019-04-22T22:06:24.922Z,34.19
2019-04-22T22:09:01.021Z,34.32
2019-04-22T22:11:27.691Z,34.52
2019-04-22T22:14:04.145Z,34.80
2019-04-22T22:16:38.864Z,35.44
2019-04-22T22:19:20.907Z,35.44
2019-04-22T22:22:25.427Z,35.33
2019-04-22T22:24:38.620Z,35.33
2019-04-22T22:27:12.710Z,35.85
2019-04-22T22:29:55.878Z,35.91
2019-04-22T22:32:11.821Z,35.95
2019-04-22T22:34:43.429Z,36.19
2019-04-22T22:37:06.437Z,36.32
2019-04-22T22:39:38.112Z,36.28
2019-04-22T22:41:55.230Z,36.42
2019-04-22T22:44:32.337Z,37.11
2019-04-22T22:47:16.314Z,36.85
2019-04-22T22:49:46.989Z,37.20
2019-04-22T22:54:55.678Z,37.00
2019-04-22T22:57:30.201Z,37.43
2019-04-22T22:59:53.095Z,37.28
2019-04-22T23:02:22.520Z,37.57
2019-04-22T23:04:54.644Z,37.37
2019-04-22T23:07:33.417Z,38.09
2019-04-22T23:09:53.684Z,37.88
2019-04-22T23:12:34.687Z,38.04
2019-04-22T23:14:54.595Z,38.05
2019-04-22T23:17:14.569Z,37.96
2019-04-22T23:19:44.754Z,38.14
2019-04-22T23:22:17.883Z,38.04
2019-04-22T23:25:25.076Z,38.81
2019-04-22T23:28:03.984Z,38.13
2019-04-22T23:30:45.759Z,38.53
2019-04-22T23:36:19.440Z,38.79
2019-04-22T23:38:59.230Z,38.77
2019-04-22T23:42:04.792Z,39.14
2019-04-22T23:44:20.610Z,39.12
2019-04-22T23:47:06.056Z,38.88
2019-04-22T23:49:32.674Z,38.96
2019-04-22T23:52:13.058Z,39.45
2019-04-22T23:55:02.057Z,39.17
2019-04-22T23:57:33.366Z,39.43
